Hakuhomaru — JJ4011 — position and weather

sailwx.info

Track history (hours):
 
Tides and Currents Weather Stations Pressure Air Temp Water Temp Dewpoint Dewpoint Depression Visibility Wind Speed Wind Dir Waves Ship Positions

Hakuhomaru

Last reported at 2015-Apr-27 08:21 UTC. Time now 2015-Apr-28 06:54 UTC.
Position N 34°41' E 135°12'.

Length 38 m; draft 3.3 m.

Type: Tug. MMSI: 431401584.

Date/timePositionNaut miles runAvg speedWind from/ knotsBaromVisibWave heightAir tempDewpointWater temp
2015-Apr-27 08:21N 34°41' E 135°12'4 4.9
2015-Apr-27 07:33N 34°42' E 135°17'2 2.4
2015-Apr-27 06:33N 34°41' E 135°14'1 1.5
2015-Apr-27 05:33N 34°41' E 135°12'0 0.0
2015-Apr-27 04:33N 34°41' E 135°12'0 0.0
2015-Apr-27 03:33N 34°41' E 135°12'0 0.0
2015-Apr-27 02:33N 34°41' E 135°12'0 0.0
2015-Apr-27 01:33N 34°41' E 135°12'0 0.0
2015-Apr-27 00:33N 34°41' E 135°12'2 2.0
2015-Apr-26 23:33N 34°42' E 135°14'3 2.5
2015-Apr-26 22:33N 34°42' E 135°17'5 4.5
2015-Apr-26 21:33N 34°41' E 135°12'0 0.1
2015-Apr-26 20:33N 34°41' E 135°12'0 0.0
2015-Apr-26 03:33N 34°41' E 135°12'6 6.0
2015-Apr-26 02:33N 34°37' E 135°18'4 1.4
2015-Apr-25 23:33N 34°33' E 135°20'6 6.5
2015-Apr-25 22:33N 34°38' E 135°15'3 3.3
2015-Apr-25 21:33N 34°41' E 135°12'0 0.0
2015-Apr-25 08:17N 34°41' E 135°12'4 5.3
2015-Apr-25 07:33N 34°41' E 135°17'3 3.3
2015-Apr-25 06:33N 34°41' E 135°13'1 0.8
2015-Apr-25 05:33N 34°41' E 135°12'0 0.0
2015-Apr-25 04:33N 34°41' E 135°12'0 0.0
2015-Apr-25 03:33N 34°41' E 135°12'0 0.0
2015-Apr-25 02:33N 34°41' E 135°12'0 0.0
2015-Apr-25 01:33N 34°41' E 135°12'0 0.0
2015-Apr-25 00:33N 34°41' E 135°12'0 0.0
2015-Apr-24 23:33N 34°41' E 135°12'4 4.0
2015-Apr-24 22:34N 34°42' E 135°17'1 1.3
2015-Apr-24 21:33N 34°41' E 135°17'4 4.1
2015-Apr-24 20:33N 34°41' E 135°12'0 0.0
2015-Apr-22 23:33N 34°40' E 135°12'3 2.6
2015-Apr-22 22:33N 34°40' E 135°15'0 0.5
2015-Apr-22 21:33N 34°40' E 135°15'2 2.1
2015-Apr-22 20:33N 34°41' E 135°12'0 0.0
2015-Apr-22 08:26N 34°41' E 135°12'4 4.6
2015-Apr-22 07:33N 34°41' E 135°17'4 3.6
2015-Apr-22 06:33N 34°41' E 135°13'0 0.0
2015-Apr-22 05:33N 34°41' E 135°13'2 1.7
2015-Apr-22 04:33N 34°42' E 135°15'2 1.9
2015-Apr-22 03:33N 34°40' E 135°15'2 2.1
2015-Apr-22 02:32N 34°41' E 135°12'0 0.0
2015-Apr-22 01:32N 34°41' E 135°12'0 0.0
2015-Apr-22 00:32N 34°41' E 135°12'0 0.0
2015-Apr-21 23:33N 34°41' E 135°12'0 0.0
2015-Apr-21 07:08N 34°41' E 135°12'5 8.4
2015-Apr-21 06:33N 34°41' E 135°18'7 6.1
2015-Apr-21 05:24N 34°39' E 135°26'8 9.4
2015-Apr-21 04:33N 34°42' E 135°17'0 0.0
2015-Apr-21 03:33N 34°42' E 135°17'0 0.0
2015-Apr-21 02:33N 34°42' E 135°17'1 0.5
2015-Apr-21 01:31N 34°42' E 135°17'3 2.7
2015-Apr-21 00:33N 34°41' E 135°14'1 1.5
2015-Apr-20 23:32N 34°41' E 135°12'0 0.0
2015-Apr-20 06:33N 34°41' E 135°12'0 0.0
2015-Apr-20 05:33N 34°41' E 135°12'0 0.0
2015-Apr-20 04:33N 34°41' E 135°12'0 0.0
2015-Apr-20 03:33N 34°41' E 135°12'0 0.0
2015-Apr-20 02:33N 34°41' E 135°12'0 0.0
2015-Apr-20 01:33N 34°41' E 135°12'2 2.2
2015-Apr-20 00:33N 34°41' E 135°15'1 0.7
2015-Apr-19 23:33N 34°41' E 135°14'2 1.6
2015-Apr-19 22:32N 34°41' E 135°12'0 0.0
2015-Apr-19 21:33N 34°41' E 135°12'0 0.0
2015-Apr-19 07:09N 34°41' E 135°12'4 6.8
2015-Apr-19 06:33N 34°41' E 135°17'1 0.5
2015-Apr-19 05:33N 34°41' E 135°17'4 4.3
2015-Apr-19 04:33N 34°41' E 135°12'0 0.0
2015-Apr-19 03:33N 34°41' E 135°12'0 0.0
2015-Apr-19 02:33N 34°41' E 135°12'0 0.0
2015-Apr-19 01:33N 34°41' E 135°12'0 0.0
2015-Apr-19 00:33N 34°41' E 135°12'0 0.0
2015-Apr-18 23:33N 34°41' E 135°12'4 4.3
2015-Apr-18 22:34N 34°41' E 135°17'1 1.0
2015-Apr-18 21:33N 34°40' E 135°18'5 4.6
2015-Apr-18 20:33N 34°41' E 135°12'  
Track history (hours):
 
Tides and Currents Weather Stations Pressure Air Temp Water Temp Dewpoint Dewpoint Depression Visibility Wind Speed Wind Dir Waves Ship Positions

Hakuhomaru

Last reported at 2015-Apr-27 08:21 UTC. Time now 2015-Apr-28 06:54 UTC.
Position N 34°41' E 135°12'.

Length 38 m; draft 3.3 m.

Type: Tug. MMSI: 431401584.

Date/timePositionNaut miles runAvg speedWind from/ knotsBaromVisibWave heightAir tempDewpointWater temp
2015-Apr-27 08:21N 34°41' E 135°12'4 4.9
2015-Apr-27 07:33N 34°42' E 135°17'2 2.4
2015-Apr-27 06:33N 34°41' E 135°14'1 1.5
2015-Apr-27 05:33N 34°41' E 135°12'0 0.0
2015-Apr-27 04:33N 34°41' E 135°12'0 0.0
2015-Apr-27 03:33N 34°41' E 135°12'0 0.0
2015-Apr-27 02:33N 34°41' E 135°12'0 0.0
2015-Apr-27 01:33N 34°41' E 135°12'0 0.0
2015-Apr-27 00:33N 34°41' E 135°12'2 2.0
2015-Apr-26 23:33N 34°42' E 135°14'3 2.5
2015-Apr-26 22:33N 34°42' E 135°17'5 4.5
2015-Apr-26 21:33N 34°41' E 135°12'0 0.1
2015-Apr-26 20:33N 34°41' E 135°12'0 0.0
2015-Apr-26 03:33N 34°41' E 135°12'6 6.0
2015-Apr-26 02:33N 34°37' E 135°18'4 1.4
2015-Apr-25 23:33N 34°33' E 135°20'6 6.5
2015-Apr-25 22:33N 34°38' E 135°15'3 3.3
2015-Apr-25 21:33N 34°41' E 135°12'0 0.0
2015-Apr-25 08:17N 34°41' E 135°12'4 5.3
2015-Apr-25 07:33N 34°41' E 135°17'3 3.3
2015-Apr-25 06:33N 34°41' E 135°13'1 0.8
2015-Apr-25 05:33N 34°41' E 135°12'0 0.0
2015-Apr-25 04:33N 34°41' E 135°12'0 0.0
2015-Apr-25 03:33N 34°41' E 135°12'0 0.0
2015-Apr-25 02:33N 34°41' E 135°12'0 0.0
2015-Apr-25 01:33N 34°41' E 135°12'0 0.0
2015-Apr-25 00:33N 34°41' E 135°12'0 0.0
2015-Apr-24 23:33N 34°41' E 135°12'4 4.0
2015-Apr-24 22:34N 34°42' E 135°17'1 1.3
2015-Apr-24 21:33N 34°41' E 135°17'4 4.1
2015-Apr-24 20:33N 34°41' E 135°12'0 0.0
2015-Apr-22 23:33N 34°40' E 135°12'3 2.6
2015-Apr-22 22:33N 34°40' E 135°15'0 0.5
2015-Apr-22 21:33N 34°40' E 135°15'2 2.1
2015-Apr-22 20:33N 34°41' E 135°12'0 0.0
2015-Apr-22 08:26N 34°41' E 135°12'4 4.6
2015-Apr-22 07:33N 34°41' E 135°17'4 3.6
2015-Apr-22 06:33N 34°41' E 135°13'0 0.0
2015-Apr-22 05:33N 34°41' E 135°13'2 1.7
2015-Apr-22 04:33N 34°42' E 135°15'2 1.9
2015-Apr-22 03:33N 34°40' E 135°15'2 2.1
2015-Apr-22 02:32N 34°41' E 135°12'0 0.0
2015-Apr-22 01:32N 34°41' E 135°12'0 0.0
2015-Apr-22 00:32N 34°41' E 135°12'0 0.0
2015-Apr-21 23:33N 34°41' E 135°12'0 0.0
2015-Apr-21 07:08N 34°41' E 135°12'5 8.4
2015-Apr-21 06:33N 34°41' E 135°18'7 6.1
2015-Apr-21 05:24N 34°39' E 135°26'8 9.4
2015-Apr-21 04:33N 34°42' E 135°17'0 0.0
2015-Apr-21 03:33N 34°42' E 135°17'0 0.0
2015-Apr-21 02:33N 34°42' E 135°17'1 0.5
2015-Apr-21 01:31N 34°42' E 135°17'3 2.7
2015-Apr-21 00:33N 34°41' E 135°14'1 1.5
2015-Apr-20 23:32N 34°41' E 135°12'0 0.0
2015-Apr-20 06:33N 34°41' E 135°12'0 0.0
2015-Apr-20 05:33N 34°41' E 135°12'0 0.0
2015-Apr-20 04:33N 34°41' E 135°12'0 0.0
2015-Apr-20 03:33N 34°41' E 135°12'0 0.0
2015-Apr-20 02:33N 34°41' E 135°12'0 0.0
2015-Apr-20 01:33N 34°41' E 135°12'2 2.2
2015-Apr-20 00:33N 34°41' E 135°15'1 0.7
2015-Apr-19 23:33N 34°41' E 135°14'2 1.6
2015-Apr-19 22:32N 34°41' E 135°12'0 0.0
2015-Apr-19 21:33N 34°41' E 135°12'0 0.0
2015-Apr-19 07:09N 34°41' E 135°12'4 6.8
2015-Apr-19 06:33N 34°41' E 135°17'1 0.5
2015-Apr-19 05:33N 34°41' E 135°17'4 4.3
2015-Apr-19 04:33N 34°41' E 135°12'0 0.0
2015-Apr-19 03:33N 34°41' E 135°12'0 0.0
2015-Apr-19 02:33N 34°41' E 135°12'0 0.0
2015-Apr-19 01:33N 34°41' E 135°12'0 0.0
2015-Apr-19 00:33N 34°41' E 135°12'0 0.0
2015-Apr-18 23:33N 34°41' E 135°12'4 4.3
2015-Apr-18 22:34N 34°41' E 135°17'1 1.0
2015-Apr-18 21:33N 34°40' E 135°18'5 4.6
2015-Apr-18 20:33N 34°41' E 135°12'  

Dump ship's entire track history